Time;durP1;ratioP1;P1;durP2;ratioP2;P2;SDS_P1;SDS_P2;PMS_P1;PMS_P2;Temp;Humidity;BMP_temperature;BMP_pressure;BME280_temperature;BME280_humidity;BME280_pressure;Samples;Min_cycle;Max_cycle;Signal;HPM_P1;HPM_P2
2021/04/24 00:01:36;;;;;;;12.13;5.45;;;5.90;51.80;;;;;;5091157;28;20695;-66
2021/04/24 00:04:03;;;;;;;6.38;5.32;;;5.80;51.60;;;;;;5092159;28;20196;-66
2021/04/24 00:06:29;;;;;;;9.45;5.72;;;5.70;52.00;;;;;;5091715;28;20189;-66
2021/04/24 00:08:56;;;;;;;10.85;5.10;;;5.70;51.90;;;;;;5092257;28;20291;-66
2021/04/24 00:11:24;;;;;;;7.55;4.82;;;5.70;52.10;;;;;;5091303;28;20194;-66
2021/04/24 00:13:52;;;;;;;8.27;4.90;;;5.60;52.10;;;;;;5091867;28;20193;-66
2021/04/24 00:16:20;;;;;;;9.35;6.05;;;5.60;52.10;;;;;;5091587;28;20589;-66
2021/04/24 00:18:46;;;;;;;6.43;4.38;;;5.60;52.20;;;;;;5091839;28;20196;-66
2021/04/24 00:21:14;;;;;;;6.82;4.75;;;5.60;51.90;;;;;;5090976;28;20192;-66
2021/04/24 00:23:40;;;;;;;8.05;5.57;;;5.60;51.50;;;;;;5092018;28;20219;-66
2021/04/24 00:26:07;;;;;;;7.78;5.38;;;5.60;52.10;;;;;;5091287;28;20234;-66
2021/04/24 00:28:34;;;;;;;7.60;4.20;;;5.60;52.30;;;;;;5091733;28;20229;-66
2021/04/24 00:31:00;;;;;;;9.25;4.10;;;5.50;52.00;;;;;;5091285;28;20236;-67
2021/04/24 00:33:28;;;;;;;7.05;4.40;;;5.50;52.40;;;;;;5092331;28;20192;-67
2021/04/24 00:35:54;;;;;;;6.82;3.83;;;5.40;52.40;;;;;;5095115;28;20523;-67
2021/04/24 00:38:21;;;;;;;8.20;4.47;;;5.50;52.40;;;;;;5095647;28;20192;-67
2021/04/24 00:40:48;;;;;;;8.88;4.18;;;5.50;52.60;;;;;;5094943;28;20325;-67
2021/04/24 00:43:15;;;;;;;9.07;4.88;;;5.40;53.00;;;;;;5094970;28;20294;-67
2021/04/24 00:45:43;;;;;;;9.07;5.15;;;5.50;53.10;;;;;;5095642;28;20196;-67
2021/04/24 00:48:09;;;;;;;9.75;4.68;;;5.50;52.80;;;;;;5095474;28;20582;-67
2021/04/24 00:50:40;;;;;;;6.75;4.45;;;5.40;53.00;;;;;;5095261;28;20189;-67
2021/04/24 00:53:09;;;;;;;8.55;4.40;;;5.40;53.00;;;;;;5095204;28;20200;-67
2021/04/24 00:55:37;;;;;;;7.55;4.88;;;5.30;52.70;;;;;;5094697;28;20192;-67
2021/04/24 00:58:04;;;;;;;8.35;4.68;;;5.20;52.90;;;;;;5095288;28;20235;-68
2021/04/24 01:00:31;;;;;;;7.45;4.35;;;5.20;52.90;;;;;;5094789;28;20602;-67
2021/04/24 01:02:58;;;;;;;5.68;4.00;;;5.10;53.10;;;;;;5095001;28;20196;-67
2021/04/24 01:05:26;;;;;;;5.82;4.15;;;5.10;53.10;;;;;;5094581;28;20181;-67
2021/04/24 01:07:54;;;;;;;6.53;4.00;;;5.00;53.00;;;;;;5095019;28;20635;-67
2021/04/24 01:10:20;;;;;;;9.40;4.10;;;4.90;53.00;;;;;;5094485;28;20526;-67
2021/04/24 01:12:48;;;;;;;6.88;4.75;;;4.90;53.10;;;;;;5094958;28;20185;-67
2021/04/24 01:15:17;;;;;;;4.65;3.47;;;4.90;52.90;;;;;;5094381;28;20650;-68
2021/04/24 01:17:45;;;;;;;7.10;3.85;;;4.90;52.80;;;;;;5095016;28;20189;-67
2021/04/24 01:20:16;;;;;;;7.90;3.97;;;4.70;53.60;;;;;;5094675;28;20643;-67
2021/04/24 01:22:45;;;;;;;5.63;3.70;;;4.60;54.20;;;;;;5093543;28;20185;-67
2021/04/24 01:25:15;;;;;;;5.97;3.95;;;4.50;54.40;;;;;;5094929;28;20587;-67
2021/04/24 01:27:42;;;;;;;7.00;3.92;;;4.50;54.20;;;;;;5094212;28;20217;-67
2021/04/24 01:30:11;;;;;;;7.35;4.60;;;4.40;54.50;;;;;;5094311;28;20182;-67
2021/04/24 01:32:38;;;;;;;8.85;3.97;;;4.30;54.60;;;;;;5093404;28;20204;-67
2021/04/24 01:35:07;;;;;;;6.95;6.25;;;4.40;54.80;;;;;;5094449;28;20554;-67
2021/04/24 01:37:34;;;;;;;7.80;3.83;;;4.40;54.90;;;;;;5094391;28;20224;-67
2021/04/24 01:40:01;;;;;;;5.80;4.47;;;4.30;55.40;;;;;;5094268;28;20275;-67
2021/04/24 01:42:27;;;;;;;5.65;3.67;;;4.30;55.90;;;;;;5094247;28;20185;-67
2021/04/24 01:44:54;;;;;;;6.82;4.32;;;4.20;56.20;;;;;;5094177;28;20185;-67
2021/04/24 01:47:21;;;;;;;6.30;4.35;;;4.20;56.50;;;;;;5093504;28;20686;-67
2021/04/24 01:49:47;;;;;;;5.50;3.60;;;4.30;56.40;;;;;;5094238;28;20189;-67
2021/04/24 01:52:14;;;;;;;5.53;3.45;;;4.30;56.10;;;;;;5093824;28;20185;-67
2021/04/24 01:54:40;;;;;;;7.50;3.67;;;4.30;55.70;;;;;;5094260;28;20192;-68
2021/04/24 01:57:08;;;;;;;5.25;3.28;;;4.30;55.40;;;;;;5093240;28;20184;-67
2021/04/24 01:59:35;;;;;;;5.65;3.60;;;4.20;55.00;;;;;;5093318;28;20189;-67
2021/04/24 02:02:02;;;;;;;6.03;4.03;;;4.20;55.10;;;;;;5093853;28;20234;-67
2021/04/24 02:04:30;;;;;;;9.35;4.53;;;4.20;55.10;;;;;;5093918;28;20193;-67
2021/04/24 02:06:57;;;;;;;6.40;3.90;;;4.20;55.20;;;;;;5093338;28;20655;-67
2021/04/24 02:09:24;;;;;;;5.80;4.30;;;4.20;55.20;;;;;;5093655;28;20181;-67
2021/04/24 02:12:05;;;;;;;8.38;4.70;;;4.20;55.50;;;;;;5093415;28;20189;-67
2021/04/24 02:14:39;;;;;;;8.10;4.53;;;4.20;56.00;;;;;;5093803;28;20193;-67
2021/04/24 02:17:07;;;;;;;7.60;4.63;;;4.10;55.50;;;;;;5093437;28;20189;-67
2021/04/24 02:19:37;;;;;;;5.85;4.18;;;4.10;55.60;;;;;;5093245;28;20216;-67
2021/04/24 02:22:04;;;;;;;10.35;4.65;;;4.00;55.80;;;;;;5093435;28;20183;-67
2021/04/24 02:24:38;;;;;;;9.48;4.43;;;4.00;55.90;;;;;;5092367;28;20590;-67
2021/04/24 02:27:06;;;;;;;7.13;4.20;;;3.90;55.90;;;;;;5093459;28;20658;-69
2021/04/24 02:29:33;;;;;;;6.97;4.30;;;3.90;56.00;;;;;;5093081;28;20188;-67
2021/04/24 02:32:00;;;;;;;9.02;6.55;;;3.80;56.10;;;;;;5093351;28;20196;-67
2021/04/24 02:34:26;;;;;;;9.50;5.80;;;3.90;56.10;;;;;;5092815;28;20177;-67
2021/04/24 02:36:53;;;;;;;8.70;4.95;;;3.80;55.90;;;;;;5093257;28;20228;-67
2021/04/24 02:39:29;;;;;;;5.85;3.60;;;3.80;56.00;;;;;;5093195;28;20539;-67
2021/04/24 02:41:55;;;;;;;9.00;4.93;;;3.70;55.90;;;;;;5093220;28;20196;-67
2021/04/24 02:44:22;;;;;;;16.40;5.43;;;3.70;56.00;;;;;;5092249;28;20211;-68
2021/04/24 02:46:49;;;;;;;10.75;5.38;;;3.70;56.00;;;;;;5093245;28;20327;-68
2021/04/24 02:49:16;;;;;;;8.43;4.60;;;3.70;56.30;;;;;;5092632;28;20177;-67
2021/04/24 02:51:42;;;;;;;6.60;4.50;;;3.70;56.30;;;;;;5093075;28;20548;-67
2021/04/24 02:54:09;;;;;;;5.82;4.45;;;3.70;56.30;;;;;;5092500;28;20200;-67
2021/04/24 02:56:35;;;;;;;8.70;4.00;;;3.70;56.70;;;;;;5092481;28;20200;-67
2021/04/24 02:59:03;;;;;;;6.53;4.13;;;3.60;56.20;;;;;;5092551;28;20243;-67
2021/04/24 03:01:30;;;;;;;9.70;4.78;;;3.50;56.50;;;;;;5092770;28;20231;-67
2021/04/24 03:03:57;;;;;;;7.95;3.60;;;3.50;57.00;;;;;;5092413;28;20228;-67
2021/04/24 03:06:23;;;;;;;5.50;3.88;;;3.40;57.10;;;;;;5092763;28;20535;-68
2021/04/24 03:08:50;;;;;;;11.65;4.63;;;3.40;56.70;;;;;;5092053;28;20805;-68
2021/04/24 03:11:18;;;;;;;9.85;4.65;;;3.40;56.60;;;;;;5092736;28;20266;-68
2021/04/24 03:13:44;;;;;;;10.48;3.47;;;3.40;56.70;;;;;;5092046;28;20185;-67
2021/04/24 03:16:11;;;;;;;7.80;3.05;;;3.40;57.40;;;;;;5092577;28;20200;-67
2021/04/24 03:18:38;;;;;;;7.72;4.00;;;3.50;57.60;;;;;;5092260;28;20193;-67
2021/04/24 03:21:05;;;;;;;10.57;4.72;;;3.50;57.20;;;;;;5092662;28;20185;-67
2021/04/24 03:23:32;;;;;;;5.30;3.25;;;3.50;56.90;;;;;;5091741;28;20189;-67
2021/04/24 03:25:58;;;;;;;5.93;4.15;;;3.50;56.70;;;;;;5092331;28;20196;-67
2021/04/24 03:28:25;;;;;;;5.70;3.45;;;3.50;56.50;;;;;;5091831;28;20253;-67
2021/04/24 03:30:52;;;;;;;8.88;3.70;;;3.50;56.60;;;;;;5091947;28;20241;-67
2021/04/24 03:33:18;;;;;;;4.75;3.60;;;3.50;56.60;;;;;;5091850;28;20199;-67
2021/04/24 03:35:45;;;;;;;7.00;3.72;;;3.40;56.40;;;;;;5092314;28;20531;-67
2021/04/24 03:38:12;;;;;;;9.38;3.25;;;3.30;57.00;;;;;;5091844;28;20185;-67
2021/04/24 03:40:39;;;;;;;5.53;3.53;;;3.30;56.80;;;;;;5092100;28;20185;-67
2021/04/24 03:43:06;;;;;;;6.05;4.00;;;3.30;56.70;;;;;;5091823;28;20185;-67
2021/04/24 03:45:33;;;;;;;6.25;3.72;;;3.30;56.90;;;;;;5092028;28;20200;-67
2021/04/24 03:47:59;;;;;;;6.05;3.85;;;3.30;57.40;;;;;;5091973;28;20213;-67
2021/04/24 03:50:26;;;;;;;5.40;3.30;;;3.20;57.10;;;;;;5091818;28;20189;-67
2021/04/24 03:52:54;;;;;;;7.53;3.50;;;3.20;57.80;;;;;;5092058;28;20306;-67
2021/04/24 03:55:22;;;;;;;6.00;3.03;;;3.20;57.90;;;;;;5091700;28;20189;-67
2021/04/24 03:57:50;;;;;;;5.35;3.00;;;3.10;57.80;;;;;;5091760;28;20531;-67
2021/04/24 04:00:18;;;;;;;4.90;3.17;;;3.10;57.80;;;;;;5091736;28;20185;-68
2021/04/24 04:02:52;;;;;;;6.72;3.28;;;3.10;57.90;;;;;;5092242;28;20197;-67
2021/04/24 04:05:19;;;;;;;6.38;3.08;;;3.10;58.00;;;;;;5092494;28;20196;-67
2021/04/24 04:07:46;;;;;;;8.57;3.50;;;3.10;57.90;;;;;;5092116;28;20220;-74
2021/04/24 04:10:15;;;;;;;7.75;3.90;;;3.10;58.00;;;;;;5088722;28;20212;-67
2021/04/24 04:12:45;;;;;;;7.10;4.38;;;3.00;58.30;;;;;;5096596;28;20238;-67
2021/04/24 04:15:13;;;;;;;7.95;3.90;;;3.10;58.80;;;;;;5095726;28;20189;-67
2021/04/24 04:17:39;;;;;;;7.75;3.80;;;3.10;59.00;;;;;;5096480;28;20634;-67
2021/04/24 04:20:07;;;;;;;7.20;3.30;;;3.10;58.90;;;;;;5095643;28;20192;-67
2021/04/24 04:22:34;;;;;;;8.23;3.88;;;3.00;59.00;;;;;;5096279;28;20197;-67
2021/04/24 04:25:00;;;;;;;12.02;3.50;;;2.90;59.00;;;;;;5095416;28;20185;-68
2021/04/24 04:27:27;;;;;;;5.68;3.35;;;2.90;59.20;;;;;;5096053;28;20205;-67
2021/04/24 04:29:54;;;;;;;11.02;3.72;;;2.80;59.40;;;;;;5094726;28;20185;-67
2021/04/24 04:32:21;;;;;;;6.35;3.33;;;2.80;59.50;;;;;;5095888;28;20568;-67
2021/04/24 04:34:48;;;;;;;5.78;2.80;;;2.80;59.30;;;;;;5095848;28;20185;-68
2021/04/24 04:37:14;;;;;;;4.32;3.03;;;2.80;59.40;;;;;;5095963;28;20247;-67
2021/04/24 04:39:41;;;;;;;5.90;3.38;;;2.80;59.90;;;;;;5095412;28;20181;-67
2021/04/24 04:42:08;;;;;;;4.80;3.22;;;2.80;60.20;;;;;;5095744;28;20208;-67
2021/04/24 04:44:35;;;;;;;6.20;2.67;;;2.90;60.10;;;;;;5095266;28;20185;-67
2021/04/24 04:47:03;;;;;;;6.47;4.20;;;2.90;60.10;;;;;;5095593;28;20193;-67
2021/04/24 04:49:29;;;;;;;8.48;3.53;;;2.90;60.30;;;;;;5095039;28;20188;-67
2021/04/24 04:51:56;;;;;;;7.20;3.78;;;3.00;60.70;;;;;;5095526;28;20221;-66
2021/04/24 04:54:22;;;;;;;6.10;3.75;;;3.10;60.90;;;;;;5095077;28;20180;-67
2021/04/24 04:56:49;;;;;;;7.63;4.53;;;3.20;60.90;;;;;;5095446;28;20589;-67
2021/04/24 04:59:16;;;;;;;9.35;4.07;;;3.30;60.60;;;;;;5095306;28;20246;-67
2021/04/24 05:01:43;;;;;;;9.82;4.72;;;3.40;60.50;;;;;;5095599;28;20196;-67
2021/04/24 05:04:10;;;;;;;10.32;4.80;;;3.40;60.20;;;;;;5094745;28;20193;-67
2021/04/24 05:06:37;;;;;;;6.75;3.78;;;3.50;59.80;;;;;;5095295;28;20619;-67
2021/04/24 05:09:04;;;;;;;6.75;4.32;;;3.60;59.90;;;;;;5094995;28;20670;-67
2021/04/24 05:11:30;;;;;;;6.13;3.75;;;3.60;59.20;;;;;;5095281;28;20651;-67
2021/04/24 05:13:56;;;;;;;6.57;4.30;;;3.60;59.20;;;;;;5094624;28;20238;-68
2021/04/24 05:16:23;;;;;;;8.70;4.40;;;3.50;59.30;;;;;;5095354;28;20189;-67
2021/04/24 05:18:49;;;;;;;6.55;4.35;;;3.60;59.70;;;;;;5094486;28;20522;-67
2021/04/24 05:21:17;;;;;;;7.28;4.78;;;3.70;59.90;;;;;;5095053;28;20193;-68
2021/04/24 05:23:43;;;;;;;6.55;4.20;;;3.80;59.90;;;;;;5094673;28;20554;-67
2021/04/24 05:26:10;;;;;;;7.65;3.65;;;3.90;59.60;;;;;;5095038;28;20197;-67
2021/04/24 05:28:36;;;;;;;13.82;4.25;;;3.90;59.80;;;;;;5093816;28;20217;-67
2021/04/24 05:31:03;;;;;;;11.00;5.10;;;3.90;59.60;;;;;;5094714;28;20216;-67
2021/04/24 05:33:29;;;;;;;5.68;4.05;;;4.00;59.70;;;;;;5094907;28;20216;-67
2021/04/24 05:35:56;;;;;;;6.25;3.97;;;4.10;60.30;;;;;;5093375;28;20205;-68
2021/04/24 05:38:23;;;;;;;8.40;4.30;;;4.30;60.90;;;;;;5094424;28;20188;-67
2021/04/24 05:40:50;;;;;;;9.80;4.53;;;4.40;60.30;;;;;;5094795;28;20242;-68
2021/04/24 05:43:17;;;;;;;9.05;4.45;;;4.50;59.50;;;;;;5094344;28;20189;-67
2021/04/24 05:45:44;;;;;;;16.50;6.30;;;4.50;59.80;;;;;;5094787;28;20185;-67
2021/04/24 05:48:10;;;;;;;8.35;4.10;;;4.70;60.60;;;;;;5093849;28;20213;-68
2021/04/24 05:50:37;;;;;;;11.45;4.53;;;4.80;60.50;;;;;;5094063;28;20196;-67
2021/04/24 05:53:04;;;;;;;17.70;4.72;;;4.90;60.80;;;;;;5094015;28;20554;-69
2021/04/24 05:55:31;;;;;;;7.60;4.68;;;5.00;61.40;;;;;;5094155;28;20189;-67
2021/04/24 05:57:57;;;;;;;5.63;4.07;;;5.00;60.70;;;;;;5093809;28;20189;-68
2021/04/24 06:00:25;;;;;;;9.05;4.13;;;5.10;60.00;;;;;;5094274;28;20276;-67
2021/04/24 06:02:52;;;;;;;12.10;4.35;;;5.20;60.30;;;;;;5093773;28;20196;-67
2021/04/24 06:05:19;;;;;;;4.70;3.72;;;5.40;59.90;;;;;;5094099;28;20551;-67
2021/04/24 06:07:46;;;;;;;7.88;4.05;;;5.50;59.90;;;;;;5093907;28;20740;-67
2021/04/24 06:10:16;;;;;;;6.93;4.20;;;5.60;60.30;;;;;;5094299;28;20193;-67
2021/04/24 06:12:44;;;;;;;8.18;5.63;;;5.80;59.80;;;;;;5093393;28;20707;-68
2021/04/24 06:15:12;;;;;;;8.07;4.85;;;5.90;58.80;;;;;;5093863;28;20686;-67
2021/04/24 06:17:41;;;;;;;6.40;3.85;;;6.10;58.40;;;;;;5093579;28;20220;-67
2021/04/24 06:20:10;;;;;;;8.48;4.18;;;6.20;58.40;;;;;;5093962;28;20562;-68
2021/04/24 06:22:36;;;;;;;10.90;3.88;;;6.30;57.90;;;;;;5093441;28;20189;-68
2021/04/24 06:25:04;;;;;;;7.90;4.32;;;6.50;57.70;;;;;;5073502;28;20185;-67
2021/04/24 06:27:31;;;;;;;7.63;4.82;;;6.60;57.50;;;;;;5073189;28;20703;-68
2021/04/24 06:29:58;;;;;;;7.32;4.80;;;6.80;57.00;;;;;;5093502;28;20197;-68
2021/04/24 06:32:25;;;;;;;11.35;5.30;;;6.90;56.40;;;;;;5092254;28;20199;-67
2021/04/24 06:34:52;;;;;;;12.60;4.68;;;7.10;56.60;;;;;;5093311;28;20647;-67
2021/04/24 06:37:18;;;;;;;12.82;5.13;;;7.30;56.60;;;;;;5092953;28;20221;-69
2021/04/24 06:39:45;;;;;;;10.48;5.25;;;7.50;56.10;;;;;;5093482;28;20185;-69
2021/04/24 06:42:11;;;;;;;9.50;4.47;;;7.60;54.30;;;;;;5090729;28;20189;-69
2021/04/24 06:44:38;;;;;;;9.23;5.30;;;7.70;53.70;;;;;;5090162;28;20192;-69
2021/04/24 06:47:05;;;;;;;6.32;4.63;;;7.90;53.70;;;;;;5091628;28;20197;-68
2021/04/24 06:49:32;;;;;;;7.65;5.50;;;8.00;52.90;;;;;;5091171;28;20615;-68
2021/04/24 06:51:58;;;;;;;7.65;4.80;;;8.20;52.60;;;;;;5091117;28;20196;-68
2021/04/24 06:54:25;;;;;;;9.30;3.97;;;8.30;52.90;;;;;;5091169;28;20192;-67
2021/04/24 06:56:51;;;;;;;16.45;5.57;;;8.50;52.70;;;;;;5091350;28;21466;-67
2021/04/24 06:59:18;;;;;;;7.15;4.93;;;8.70;52.20;;;;;;5090883;28;20557;-68
2021/04/24 07:01:44;;;;;;;14.10;5.75;;;8.90;51.90;;;;;;5090888;28;20196;-67
2021/04/24 07:04:12;;;;;;;6.22;4.50;;;9.10;52.40;;;;;;5090558;28;20219;-68
2021/04/24 07:06:38;;;;;;;9.25;4.70;;;9.30;51.10;;;;;;5091230;28;20189;-68
2021/04/24 07:09:06;;;;;;;7.50;3.88;;;9.40;51.80;;;;;;5090633;28;20274;-68
2021/04/24 07:11:33;;;;;;;6.82;4.40;;;9.60;50.90;;;;;;5090697;28;20189;-69
2021/04/24 07:14:00;;;;;;;7.55;4.45;;;9.80;50.40;;;;;;5086859;28;20189;-69
2021/04/24 07:16:26;;;;;;;5.32;3.85;;;10.00;49.20;;;;;;5090726;28;20522;-74
2021/04/24 07:18:53;;;;;;;9.98;5.20;;;10.20;48.60;;;;;;5090862;28;20185;-68
2021/04/24 07:21:21;;;;;;;9.20;4.18;;;10.30;46.80;;;;;;5091025;28;20196;-69
2021/04/24 07:23:48;;;;;;;6.25;4.38;;;10.50;46.00;;;;;;5089715;28;20221;-68
2021/04/24 07:26:17;;;;;;;8.07;4.22;;;10.80;45.90;;;;;;5090918;28;20189;-68
2021/04/24 07:28:44;;;;;;;8.35;4.22;;;10.90;45.10;;;;;;5090521;28;20219;-68
2021/04/24 07:31:13;;;;;;;7.90;4.05;;;11.20;46.20;;;;;;5087055;28;20185;-70
2021/04/24 07:33:40;;;;;;;7.75;3.67;;;11.40;45.20;;;;;;5087324;28;20196;-68
2021/04/24 07:36:07;;;;;;;5.82;4.15;;;11.60;45.30;;;;;;5088784;28;20220;-68
2021/04/24 07:38:35;;;;;;;9.50;4.85;;;11.90;44.70;;;;;;5089171;28;20272;-68
2021/04/24 07:41:02;;;;;;;10.00;3.85;;;12.10;44.40;;;;;;5089050;28;20197;-69
2021/04/24 07:43:28;;;;;;;8.23;3.88;;;12.40;45.10;;;;;;5091640;28;20307;-73
2021/04/24 07:45:56;;;;;;;9.82;4.88;;;12.60;44.40;;;;;;5094685;28;20216;-68
2021/04/24 07:48:22;;;;;;;8.20;4.35;;;12.90;43.20;;;;;;5094519;28;20217;-68
2021/04/24 07:50:49;;;;;;;7.00;4.55;;;13.20;41.60;;;;;;5094393;28;20185;-70
2021/04/24 07:53:16;;;;;;;6.95;4.13;;;13.30;40.80;;;;;;5090622;28;20185;-68
2021/04/24 07:55:43;;;;;;;7.30;4.57;;;13.50;39.90;;;;;;5094256;28;20646;-68
2021/04/24 07:58:10;;;;;;;6.85;4.25;;;13.70;41.10;;;;;;5094945;28;20257;-68
2021/04/24 08:00:37;;;;;;;7.47;3.47;;;14.00;40.80;;;;;;5094786;28;20275;-68
2021/04/24 08:03:04;;;;;;;7.15;4.10;;;14.20;39.20;;;;;;5089760;28;20227;-68
2021/04/24 08:05:30;;;;;;;8.45;3.47;;;14.50;36.30;;;;;;5095102;28;20277;-68
2021/04/24 08:07:57;;;;;;;8.23;3.40;;;14.70;35.00;;;;;;5094841;28;20309;-68
2021/04/24 08:10:24;;;;;;;6.43;4.00;;;14.80;34.70;;;;;;5094590;28;20478;-69
2021/04/24 08:12:51;;;;;;;8.13;4.10;;;14.90;33.90;;;;;;5094628;28;20193;-69
2021/04/24 08:15:18;;;;;;;8.20;3.80;;;15.00;34.10;;;;;;5094279;28;20467;-68
2021/04/24 08:17:45;;;;;;;7.30;3.33;;;15.10;35.80;;;;;;5094471;28;20876;-69
2021/04/24 08:20:14;;;;;;;9.37;4.50;;;15.40;34.30;;;;;;5093752;28;20871;-69
2021/04/24 08:22:41;;;;;;;15.03;4.10;;;15.60;34.70;;;;;;5087793;28;20526;-70
2021/04/24 08:25:08;;;;;;;5.30;3.70;;;15.70;33.30;;;;;;5090046;28;21125;-71
2021/04/24 08:27:35;;;;;;;4.63;3.30;;;15.80;32.20;;;;;;5093238;28;20470;-69
2021/04/24 08:30:04;;;;;;;6.00;3.97;;;16.10;34.30;;;;;;5092158;28;20465;-71
2021/04/24 08:32:30;;;;;;;6.90;3.67;;;16.30;35.60;;;;;;5092516;28;20843;-69
2021/04/24 08:34:57;;;;;;;7.37;4.50;;;16.40;34.90;;;;;;5091817;28;20520;-68
2021/04/24 08:37:23;;;;;;;5.30;4.00;;;16.60;34.40;;;;;;5092544;28;20502;-69
2021/04/24 08:39:49;;;;;;;5.60;3.83;;;16.90;32.90;;;;;;5092737;28;20462;-70
2021/04/24 08:42:16;;;;;;;5.67;3.60;;;17.00;33.80;;;;;;5092653;28;20514;-69
2021/04/24 08:44:43;;;;;;;5.57;3.90;;;17.20;32.50;;;;;;5091920;28;20506;-69
2021/04/24 08:47:11;;;;;;;7.07;3.80;;;17.40;30.30;;;;;;5093112;28;20435;-69
2021/04/24 08:49:40;;;;;;;10.63;4.30;;;17.50;29.90;;;;;;5091861;28;21063;-70
2021/04/24 08:52:06;;;;;;;4.97;3.80;;;17.70;29.80;;;;;;5089166;28;20481;-70
2021/04/24 08:54:33;;;;;;;6.70;3.67;;;17.70;29.90;;;;;;5091053;28;20457;-69
2021/04/24 08:56:59;;;;;;;5.90;4.17;;;17.60;28.90;;;;;;5092267;28;20771;-68
2021/04/24 08:59:26;;;;;;;5.27;3.83;;;17.70;29.40;;;;;;5091631;28;20514;-70
2021/04/24 09:01:52;;;;;;;10.40;3.80;;;17.70;30.00;;;;;;5091753;28;20613;-70
2021/04/24 09:04:19;;;;;;;7.23;3.67;;;17.80;29.80;;;;;;5091832;28;20872;-71
2021/04/24 09:06:46;;;;;;;5.80;3.80;;;18.00;30.50;;;;;;5092203;28;20522;-69
2021/04/24 09:09:13;;;;;;;8.20;3.30;;;18.20;31.20;;;;;;5092013;28;20506;-70
2021/04/24 09:11:41;;;;;;;5.60;3.30;;;18.40;30.90;;;;;;5092177;28;20535;-71
2021/04/24 09:14:09;;;;;;;8.07;3.70;;;18.60;30.40;;;;;;5091340;28;20459;-69
2021/04/24 09:16:36;;;;;;;5.40;2.80;;;18.70;31.50;;;;;;5091505;28;20450;-69
2021/04/24 09:19:23;;;;;;;5.00;3.63;;;18.90;31.90;;;;;;5091413;28;20490;-69
2021/04/24 09:22:11;;;;;;;4.10;3.27;;;19.00;31.40;;;;;;5090477;28;20470;-70
2021/04/24 09:24:38;;;;;;;5.13;3.80;;;19.20;30.50;;;;;;5088560;28;20809;-68
2021/04/24 09:27:10;;;;;;;11.80;3.30;;;19.40;32.60;;;;;;5093504;28;20435;-68
2021/04/24 09:29:37;;;;;;;6.20;4.10;;;19.60;32.80;;;;;;5086835;28;20493;-70
2021/04/24 09:32:15;;;;;;;4.43;3.07;;;19.80;30.30;;;;;;5090643;28;20513;-70
2021/04/24 09:34:42;;;;;;;5.63;3.67;;;20.00;29.80;;;;;;5090485;28;20427;-70
2021/04/24 09:37:16;;;;;;;6.83;3.30;;;20.20;31.10;;;;;;5090012;28;20463;-69
2021/04/24 09:39:50;;;;;;;9.43;3.20;;;20.30;31.10;;;;;;5090583;28;21242;-71
2021/04/24 09:42:34;;;;;;;5.87;3.53;;;20.50;30.10;;;;;;5090291;28;20964;-71
2021/04/24 09:45:01;;;;;;;9.20;4.00;;;20.60;29.80;;;;;;5090092;28;20446;-70
2021/04/24 09:47:41;;;;;;;6.67;3.20;;;20.70;28.80;;;;;;5089915;28;20491;-70
2021/04/24 09:50:17;;;;;;;5.13;3.43;;;20.80;28.70;;;;;;5090239;28;20451;-74
2021/04/24 09:52:46;;;;;;;6.30;3.37;;;20.90;29.10;;;;;;5090282;28;20439;-69
2021/04/24 09:55:17;;;;;;;6.43;2.97;;;21.10;27.60;;;;;;5090022;28;20439;-69
2021/04/24 09:57:44;;;;;;;7.67;4.23;;;21.10;27.20;;;;;;5090241;28;20949;-73
2021/04/24 10:00:15;;;;;;;4.80;3.20;;;21.20;26.50;;;;;;5086872;28;20446;-69
2021/04/24 10:02:44;;;;;;;6.30;3.50;;;21.20;26.30;;;;;;5090184;28;20814;-70
2021/04/24 10:05:14;;;;;;;8.17;3.93;;;21.20;28.70;;;;;;5090784;28;20435;-69
2021/04/24 10:07:42;;;;;;;11.70;3.50;;;21.30;28.70;;;;;;5089266;28;20447;-69
2021/04/24 10:10:11;;;;;;;6.23;4.47;;;21.40;28.70;;;;;;5090902;28;20538;-73
2021/04/24 10:12:38;;;;;;;10.23;3.70;;;21.60;27.60;;;;;;5091485;28;20467;-69
2021/04/24 10:15:06;;;;;;;8.57;3.50;;;21.70;27.50;;;;;;5090356;28;20474;-72
2021/04/24 10:17:33;;;;;;;4.83;3.30;;;21.80;27.40;;;;;;5086917;28;20527;-69
2021/04/24 10:20:01;;;;;;;10.00;3.80;;;21.90;26.40;;;;;;5090893;28;20823;-69
2021/04/24 10:22:28;;;;;;;9.90;3.83;;;22.00;25.60;;;;;;5087960;28;20514;-70
2021/04/24 10:24:54;;;;;;;5.90;3.40;;;22.00;26.10;;;;;;5089873;28;20463;-72
2021/04/24 10:27:23;;;;;;;9.13;4.27;;;22.10;25.70;;;;;;5087967;28;20431;-69
2021/04/24 10:29:51;;;;;;;8.93;4.37;;;22.20;25.40;;;;;;5090271;28;20479;-70
2021/04/24 10:32:17;;;;;;;8.63;4.27;;;22.30;25.20;;;;;;5088693;28;20457;-69
2021/04/24 10:34:44;;;;;;;9.13;3.30;;;22.40;25.40;;;;;;5090069;28;20427;-71
2021/04/24 10:37:11;;;;;;;6.00;3.90;;;22.50;26.40;;;;;;5091972;28;20576;-69
2021/04/24 10:39:40;;;;;;;7.73;4.73;;;22.70;27.10;;;;;;5091568;28;20471;-69
2021/04/24 10:42:11;;;;;;;8.90;4.40;;;22.80;25.40;;;;;;5092080;28;20452;-69
2021/04/24 10:44:51;;;;;;;5.83;3.47;;;22.80;24.30;;;;;;5091549;28;20961;-69
2021/04/24 10:47:46;;;;;;;7.60;4.70;;;22.90;24.80;;;;;;5091535;28;20431;-67
2021/04/24 10:50:19;;;;;;;5.80;4.23;;;22.90;24.20;;;;;;5089977;28;20435;-66
2021/04/24 10:52:46;;;;;;;8.77;4.93;;;22.90;24.80;;;;;;5091553;28;20447;-66
2021/04/24 10:55:19;;;;;;;6.70;4.10;;;22.90;24.00;;;;;;5091328;28;20443;-69
2021/04/24 10:57:46;;;;;;;6.73;4.90;;;23.00;24.90;;;;;;5091400;28;20467;-68
2021/04/24 11:00:17;;;;;;;12.83;4.60;;;23.00;24.70;;;;;;5087228;28;20439;-67
2021/04/24 11:02:45;;;;;;;9.10;5.50;;;22.90;25.60;;;;;;5091188;28;20443;-67
2021/04/24 11:05:25;;;;;;;9.17;4.70;;;22.90;25.00;;;;;;5091543;28;20538;-67
2021/04/24 11:08:36;;;;;;;6.57;4.47;;;22.90;25.20;;;;;;5091220;28;20447;-67
2021/04/24 11:11:08;;;;;;;10.40;4.10;;;23.00;24.00;;;;;;5090443;28;20443;-70
2021/04/24 11:13:38;;;;;;;7.60;4.17;;;23.00;26.00;;;;;;5087476;28;20450;-69
2021/04/24 11:16:18;;;;;;;8.60;4.43;;;23.00;24.10;;;;;;5090854;28;20921;-67
2021/04/24 11:18:48;;;;;;;7.67;4.20;;;23.00;24.90;;;;;;5086796;28;20467;-67
2021/04/24 11:21:26;;;;;;;5.63;3.77;;;23.10;25.10;;;;;;5091230;28;20439;-67
2021/04/24 11:23:55;;;;;;;7.67;3.70;;;23.20;25.60;;;;;;5086704;28;20787;-69
2021/04/24 11:26:48;;;;;;;7.90;4.23;;;23.30;24.90;;;;;;5090988;28;20460;-68
2021/04/24 11:29:16;;;;;;;7.80;4.00;;;23.40;24.30;;;;;;5090712;28;20490;-69
2021/04/24 11:31:58;;;;;;;5.00;3.70;;;23.40;24.50;;;;;;5090936;28;20443;-67
2021/04/24 11:34:28;;;;;;;8.13;4.43;;;23.50;24.60;;;;;;5087624;28;20518;-68
2021/04/24 11:37:31;;;;;;;7.37;4.87;;;23.50;23.20;;;;;;5087508;28;20520;-70
2021/04/24 11:40:20;;;;;;;13.37;4.17;;;23.50;23.90;;;;;;5088611;28;20480;-69
2021/04/24 11:43:06;;;;;;;9.73;4.70;;;23.60;22.70;;;;;;5083507;28;20458;-69
2021/04/24 11:46:02;;;;;;;10.30;5.60;;;23.60;22.60;;;;;;5076497;28;20442;-68
2021/04/24 11:49:06;;;;;;;10.97;4.57;;;23.50;23.40;;;;;;5077781;28;20988;-68
2021/04/24 11:51:49;;;;;;;11.10;4.97;;;23.50;24.40;;;;;;5077787;28;20443;-76
2021/04/24 11:54:37;;;;;;;8.53;4.30;;;23.60;23.60;;;;;;5077403;28;20435;-70
2021/04/24 11:57:11;;;;;;;7.10;5.33;;;23.70;23.70;;;;;;5078214;28;20443;-67
2021/04/24 11:59:44;;;;;;;7.00;4.40;;;23.70;23.00;;;;;;5078036;28;20447;-69
2021/04/24 12:02:19;;;;;;;9.23;5.00;;;23.70;23.20;;;;;;5077809;28;20435;-69
2021/04/24 12:05:00;;;;;;;9.70;4.60;;;23.70;22.90;;;;;;5078639;28;20438;-70
2021/04/24 12:07:30;;;;;;;6.40;3.93;;;23.60;23.40;;;;;;5077693;28;20472;-68
2021/04/24 12:10:03;;;;;;;8.43;4.17;;;23.60;23.60;;;;;;5077586;28;20573;-68
2021/04/24 12:12:35;;;;;;;7.00;4.47;;;23.60;24.00;;;;;;5077184;28;20522;-69
2021/04/24 12:15:14;;;;;;;6.23;4.10;;;23.60;23.10;;;;;;5077059;28;20522;-70
2021/04/24 12:17:52;;;;;;;6.97;3.90;;;23.50;22.90;;;;;;5076591;28;20447;-68
2021/04/24 12:20:24;;;;;;;9.70;4.63;;;23.50;22.90;;;;;;5075848;28;20439;-69
2021/04/24 12:22:52;;;;;;;4.90;3.90;;;23.40;23.40;;;;;;5076741;28;20549;-70
2021/04/24 12:25:22;;;;;;;5.47;3.70;;;23.40;23.80;;;;;;5075497;28;20447;-71
2021/04/24 12:27:50;;;;;;;6.83;5.13;;;23.40;23.10;;;;;;5076947;28;21828;-68
2021/04/24 12:30:22;;;;;;;7.27;3.77;;;23.40;22.60;;;;;;5077927;28;21169;-70
2021/04/24 12:32:52;;;;;;;9.27;5.30;;;23.40;23.20;;;;;;5080335;28;20443;-72
2021/04/24 12:35:26;;;;;;;8.37;4.20;;;23.40;23.60;;;;;;5079513;28;21824;-68
2021/04/24 12:38:01;;;;;;;9.93;4.50;;;23.50;23.50;;;;;;5079529;28;20463;-69
2021/04/24 12:40:28;;;;;;;6.07;4.47;;;23.40;22.40;;;;;;5080351;28;20557;-68
2021/04/24 12:43:02;;;;;;;7.03;4.90;;;23.40;23.10;;;;;;5080812;28;20442;-69
2021/04/24 12:45:32;;;;;;;10.77;4.20;;;23.40;22.80;;;;;;5078980;28;20435;-69
2021/04/24 12:48:00;;;;;;;6.83;4.00;;;23.40;22.80;;;;;;5079695;28;20450;-68
2021/04/24 12:50:37;;;;;;;7.10;4.97;;;23.30;23.30;;;;;;5079609;28;21666;-68
2021/04/24 12:53:06;;;;;;;8.00;4.60;;;23.20;23.30;;;;;;5079953;28;20545;-69
2021/04/24 12:55:36;;;;;;;9.30;4.20;;;23.20;22.50;;;;;;5078666;28;20535;-71
2021/04/24 12:58:06;;;;;;;7.23;4.83;;;23.10;23.10;;;;;;5080440;28;20447;-70
2021/04/24 13:00:40;;;;;;;12.03;5.10;;;23.10;22.90;;;;;;5079568;28;20988;-73